sensor_id;sensor_type;location;lat;lon;timestamp;P1;durP1;ratioP1;P2;durP2;ratioP2
17382;SDS011;8809;51.892;8.384;2023-08-30T00:02:21;7.28;;;6.55;;
17382;SDS011;8809;51.892;8.384;2023-08-30T00:04:49;8.98;;;7.22;;
17382;SDS011;8809;51.892;8.384;2023-08-30T00:07:18;8.77;;;7.05;;
17382;SDS011;8809;51.892;8.384;2023-08-30T00:09:45;8.73;;;7.53;;
17382;SDS011;8809;51.892;8.384;2023-08-30T00:12:12;8.40;;;7.53;;
17382;SDS011;8809;51.892;8.384;2023-08-30T00:14:40;10.38;;;7.47;;
17382;SDS011;8809;51.892;8.384;2023-08-30T00:17:07;9.65;;;7.90;;
17382;SDS011;8809;51.892;8.384;2023-08-30T00:19:34;9.57;;;7.72;;
17382;SDS011;8809;51.892;8.384;2023-08-30T00:22:02;9.65;;;7.28;;
17382;SDS011;8809;51.892;8.384;2023-08-30T00:24:30;9.13;;;7.30;;
17382;SDS011;8809;51.892;8.384;2023-08-30T00:26:58;7.88;;;7.07;;
17382;SDS011;8809;51.892;8.384;2023-08-30T00:29:25;8.68;;;7.63;;
17382;SDS011;8809;51.892;8.384;2023-08-30T00:31:52;9.30;;;7.45;;
17382;SDS011;8809;51.892;8.384;2023-08-30T00:34:19;9.63;;;8.02;;
17382;SDS011;8809;51.892;8.384;2023-08-30T00:36:49;8.60;;;7.63;;
17382;SDS011;8809;51.892;8.384;2023-08-30T00:39:19;11.02;;;7.43;;
17382;SDS011;8809;51.892;8.384;2023-08-30T00:41:47;10.25;;;7.32;;
17382;SDS011;8809;51.892;8.384;2023-08-30T00:44:15;11.65;;;7.60;;
17382;SDS011;8809;51.892;8.384;2023-08-30T00:46:42;8.18;;;7.38;;
17382;SDS011;8809;51.892;8.384;2023-08-30T00:49:09;10.23;;;7.93;;
17382;SDS011;8809;51.892;8.384;2023-08-30T00:51:37;8.55;;;7.65;;
17382;SDS011;8809;51.892;8.384;2023-08-30T00:54:06;7.93;;;7.13;;
17382;SDS011;8809;51.892;8.384;2023-08-30T00:56:33;7.80;;;7.00;;
17382;SDS011;8809;51.892;8.384;2023-08-30T00:59:03;9.18;;;6.25;;
17382;SDS011;8809;51.892;8.384;2023-08-30T01:01:30;6.85;;;6.18;;
17382;SDS011;8809;51.892;8.384;2023-08-30T01:03:58;8.00;;;7.20;;
17382;SDS011;8809;51.892;8.384;2023-08-30T01:06:26;7.47;;;6.70;;
17382;SDS011;8809;51.892;8.384;2023-08-30T01:08:53;8.70;;;6.38;;
17382;SDS011;8809;51.892;8.384;2023-08-30T01:11:21;7.00;;;6.30;;
17382;SDS011;8809;51.892;8.384;2023-08-30T01:13:58;7.22;;;6.47;;
17382;SDS011;8809;51.892;8.384;2023-08-30T01:16:35;7.32;;;6.53;;
17382;SDS011;8809;51.892;8.384;2023-08-30T01:19:04;7.60;;;6.80;;
17382;SDS011;8809;51.892;8.384;2023-08-30T01:21:45;7.35;;;6.65;;
17382;SDS011;8809;51.892;8.384;2023-08-30T01:24:19;7.90;;;7.10;;
17382;SDS011;8809;51.892;8.384;2023-08-30T01:27:02;7.63;;;6.53;;
17382;SDS011;8809;51.892;8.384;2023-08-30T01:29:34;8.20;;;7.00;;
17382;SDS011;8809;51.892;8.384;2023-08-30T01:32:04;7.53;;;6.78;;
17382;SDS011;8809;51.892;8.384;2023-08-30T01:34:34;7.60;;;6.60;;
17382;SDS011;8809;51.892;8.384;2023-08-30T01:37:03;6.63;;;5.93;;
17382;SDS011;8809;51.892;8.384;2023-08-30T01:39:32;7.30;;;6.60;;
17382;SDS011;8809;51.892;8.384;2023-08-30T01:42:02;6.57;;;5.65;;
17382;SDS011;8809;51.892;8.384;2023-08-30T01:44:30;7.03;;;6.18;;
17382;SDS011;8809;51.892;8.384;2023-08-30T01:46:59;6.53;;;5.93;;
17382;SDS011;8809;51.892;8.384;2023-08-30T01:49:29;7.65;;;5.68;;
17382;SDS011;8809;51.892;8.384;2023-08-30T01:51:58;8.18;;;6.32;;
17382;SDS011;8809;51.892;8.384;2023-08-30T01:54:26;6.85;;;5.82;;
17382;SDS011;8809;51.892;8.384;2023-08-30T01:56:54;6.63;;;5.68;;
17382;SDS011;8809;51.892;8.384;2023-08-30T01:59:24;6.10;;;5.50;;
17382;SDS011;8809;51.892;8.384;2023-08-30T02:01:51;7.18;;;5.90;;
17382;SDS011;8809;51.892;8.384;2023-08-30T02:04:19;7.88;;;6.22;;
17382;SDS011;8809;51.892;8.384;2023-08-30T02:06:48;7.78;;;5.85;;
17382;SDS011;8809;51.892;8.384;2023-08-30T02:09:22;7.05;;;6.05;;
17382;SDS011;8809;51.892;8.384;2023-08-30T02:11:53;8.23;;;5.72;;
17382;SDS011;8809;51.892;8.384;2023-08-30T02:14:22;6.78;;;6.07;;
17382;SDS011;8809;51.892;8.384;2023-08-30T02:16:53;6.18;;;5.53;;
17382;SDS011;8809;51.892;8.384;2023-08-30T02:19:21;6.28;;;5.47;;
17382;SDS011;8809;51.892;8.384;2023-08-30T02:21:49;7.07;;;5.75;;
17382;SDS011;8809;51.892;8.384;2023-08-30T02:24:17;6.45;;;5.53;;
17382;SDS011;8809;51.892;8.384;2023-08-30T02:26:44;6.22;;;5.55;;
17382;SDS011;8809;51.892;8.384;2023-08-30T02:29:11;5.68;;;5.18;;
17382;SDS011;8809;51.892;8.384;2023-08-30T02:31:40;6.80;;;6.07;;
17382;SDS011;8809;51.892;8.384;2023-08-30T02:34:07;5.85;;;4.88;;
17382;SDS011;8809;51.892;8.384;2023-08-30T02:36:34;6.68;;;5.85;;
17382;SDS011;8809;51.892;8.384;2023-08-30T02:39:02;6.28;;;5.45;;
17382;SDS011;8809;51.892;8.384;2023-08-30T02:41:30;6.10;;;5.50;;
17382;SDS011;8809;51.892;8.384;2023-08-30T02:43:57;6.65;;;5.95;;
17382;SDS011;8809;51.892;8.384;2023-08-30T02:46:24;7.97;;;5.82;;
17382;SDS011;8809;51.892;8.384;2023-08-30T02:48:52;6.35;;;5.70;;
17382;SDS011;8809;51.892;8.384;2023-08-30T02:51:20;7.38;;;5.80;;
17382;SDS011;8809;51.892;8.384;2023-08-30T02:53:48;6.30;;;5.70;;
17382;SDS011;8809;51.892;8.384;2023-08-30T02:56:15;6.13;;;5.53;;
17382;SDS011;8809;51.892;8.384;2023-08-30T02:58:42;6.65;;;5.90;;
17382;SDS011;8809;51.892;8.384;2023-08-30T03:01:09;7.00;;;5.97;;
17382;SDS011;8809;51.892;8.384;2023-08-30T03:03:36;6.55;;;5.85;;
17382;SDS011;8809;51.892;8.384;2023-08-30T03:06:05;6.15;;;5.53;;
17382;SDS011;8809;51.892;8.384;2023-08-30T03:08:32;6.72;;;6.03;;
17382;SDS011;8809;51.892;8.384;2023-08-30T03:11:07;7.50;;;5.82;;
17382;SDS011;8809;51.892;8.384;2023-08-30T03:13:34;7.30;;;6.50;;
17382;SDS011;8809;51.892;8.384;2023-08-30T03:16:09;6.88;;;6.20;;
17382;SDS011;8809;51.892;8.384;2023-08-30T03:18:37;7.20;;;5.55;;
17382;SDS011;8809;51.892;8.384;2023-08-30T03:21:06;6.40;;;5.72;;
17382;SDS011;8809;51.892;8.384;2023-08-30T03:23:34;7.53;;;6.30;;
17382;SDS011;8809;51.892;8.384;2023-08-30T03:26:07;6.07;;;5.28;;
17382;SDS011;8809;51.892;8.384;2023-08-30T03:28:34;7.30;;;6.57;;
17382;SDS011;8809;51.892;8.384;2023-08-30T03:31:02;7.00;;;6.30;;
17382;SDS011;8809;51.892;8.384;2023-08-30T03:33:37;6.85;;;6.15;;
17382;SDS011;8809;51.892;8.384;2023-08-30T03:36:04;7.22;;;6.28;;
17382;SDS011;8809;51.892;8.384;2023-08-30T03:38:32;7.28;;;5.88;;
17382;SDS011;8809;51.892;8.384;2023-08-30T03:41:00;8.15;;;6.40;;
17382;SDS011;8809;51.892;8.384;2023-08-30T03:43:27;7.28;;;6.20;;
17382;SDS011;8809;51.892;8.384;2023-08-30T03:45:54;6.95;;;6.22;;
17382;SDS011;8809;51.892;8.384;2023-08-30T03:48:21;7.75;;;6.20;;
17382;SDS011;8809;51.892;8.384;2023-08-30T03:50:49;7.00;;;6.30;;
17382;SDS011;8809;51.892;8.384;2023-08-30T03:53:17;9.05;;;6.43;;
17382;SDS011;8809;51.892;8.384;2023-08-30T03:55:44;6.97;;;6.22;;
17382;SDS011;8809;51.892;8.384;2023-08-30T03:58:12;8.77;;;6.63;;
17382;SDS011;8809;51.892;8.384;2023-08-30T04:00:39;7.70;;;6.80;;
17382;SDS011;8809;51.892;8.384;2023-08-30T04:03:07;7.32;;;6.40;;
17382;SDS011;8809;51.892;8.384;2023-08-30T04:05:36;6.90;;;6.20;;
17382;SDS011;8809;51.892;8.384;2023-08-30T04:08:04;8.00;;;6.07;;
17382;SDS011;8809;51.892;8.384;2023-08-30T04:10:35;7.13;;;6.43;;
17382;SDS011;8809;51.892;8.384;2023-08-30T04:13:03;6.65;;;5.88;;
17382;SDS011;8809;51.892;8.384;2023-08-30T04:15:32;8.70;;;6.32;;
17382;SDS011;8809;51.892;8.384;2023-08-30T04:18:00;7.10;;;6.40;;
17382;SDS011;8809;51.892;8.384;2023-08-30T04:20:28;9.75;;;7.18;;
17382;SDS011;8809;51.892;8.384;2023-08-30T04:22:55;9.15;;;7.35;;
17382;SDS011;8809;51.892;8.384;2023-08-30T04:25:23;7.57;;;6.75;;
17382;SDS011;8809;51.892;8.384;2023-08-30T04:27:53;8.50;;;6.93;;
17382;SDS011;8809;51.892;8.384;2023-08-30T04:30:20;8.55;;;7.07;;
17382;SDS011;8809;51.892;8.384;2023-08-30T04:32:48;8.55;;;6.75;;
17382;SDS011;8809;51.892;8.384;2023-08-30T04:35:15;7.55;;;6.55;;
17382;SDS011;8809;51.892;8.384;2023-08-30T04:37:42;8.20;;;6.30;;
17382;SDS011;8809;51.892;8.384;2023-08-30T04:40:09;7.65;;;6.85;;
17382;SDS011;8809;51.892;8.384;2023-08-30T04:42:37;7.30;;;6.32;;
17382;SDS011;8809;51.892;8.384;2023-08-30T04:45:09;7.53;;;6.10;;
17382;SDS011;8809;51.892;8.384;2023-08-30T04:47:37;8.98;;;6.63;;
17382;SDS011;8809;51.892;8.384;2023-08-30T04:50:04;7.63;;;6.55;;
17382;SDS011;8809;51.892;8.384;2023-08-30T04:52:32;7.45;;;6.70;;
17382;SDS011;8809;51.892;8.384;2023-08-30T04:55:01;7.10;;;6.07;;
17382;SDS011;8809;51.892;8.384;2023-08-30T04:57:29;7.10;;;6.25;;
17382;SDS011;8809;51.892;8.384;2023-08-30T04:59:58;6.70;;;6.00;;
17382;SDS011;8809;51.892;8.384;2023-08-30T05:02:30;6.80;;;6.10;;
17382;SDS011;8809;51.892;8.384;2023-08-30T05:04:58;7.57;;;5.68;;
17382;SDS011;8809;51.892;8.384;2023-08-30T05:07:25;6.40;;;5.65;;
17382;SDS011;8809;51.892;8.384;2023-08-30T05:09:53;5.93;;;5.32;;
17382;SDS011;8809;51.892;8.384;2023-08-30T05:12:20;6.03;;;5.43;;
17382;SDS011;8809;51.892;8.384;2023-08-30T05:14:47;7.05;;;6.13;;
17382;SDS011;8809;51.892;8.384;2023-08-30T05:17:15;6.60;;;5.80;;
17382;SDS011;8809;51.892;8.384;2023-08-30T05:19:43;6.03;;;5.43;;
17382;SDS011;8809;51.892;8.384;2023-08-30T05:22:13;6.82;;;5.70;;
17382;SDS011;8809;51.892;8.384;2023-08-30T05:24:40;8.00;;;6.03;;
17382;SDS011;8809;51.892;8.384;2023-08-30T05:27:07;5.93;;;5.32;;
17382;SDS011;8809;51.892;8.384;2023-08-30T05:29:36;5.90;;;5.30;;
17382;SDS011;8809;51.892;8.384;2023-08-30T05:32:04;6.97;;;5.22;;
17382;SDS011;8809;51.892;8.384;2023-08-30T05:34:32;6.05;;;5.45;;
17382;SDS011;8809;51.892;8.384;2023-08-30T05:37:01;6.25;;;5.57;;
17382;SDS011;8809;51.892;8.384;2023-08-30T05:39:29;6.32;;;5.72;;
17382;SDS011;8809;51.892;8.384;2023-08-30T05:41:56;6.47;;;5.88;;
17382;SDS011;8809;51.892;8.384;2023-08-30T05:44:23;6.18;;;5.57;;
17382;SDS011;8809;51.892;8.384;2023-08-30T05:46:50;5.97;;;5.38;;
17382;SDS011;8809;51.892;8.384;2023-08-30T05:49:18;6.05;;;5.45;;
17382;SDS011;8809;51.892;8.384;2023-08-30T05:51:45;5.82;;;5.22;;
17382;SDS011;8809;51.892;8.384;2023-08-30T05:54:14;5.53;;;4.80;;
17382;SDS011;8809;51.892;8.384;2023-08-30T05:56:41;5.60;;;5.07;;
17382;SDS011;8809;51.892;8.384;2023-08-30T05:59:09;6.63;;;4.78;;
17382;SDS011;8809;51.892;8.384;2023-08-30T06:01:36;6.10;;;5.13;;
17382;SDS011;8809;51.892;8.384;2023-08-30T06:04:04;5.88;;;4.80;;
17382;SDS011;8809;51.892;8.384;2023-08-30T06:06:31;6.07;;;5.47;;
17382;SDS011;8809;51.892;8.384;2023-08-30T06:08:59;6.18;;;5.20;;
17382;SDS011;8809;51.892;8.384;2023-08-30T06:11:27;5.80;;;5.03;;
17382;SDS011;8809;51.892;8.384;2023-08-30T06:13:55;5.82;;;5.22;;
17382;SDS011;8809;51.892;8.384;2023-08-30T06:16:24;7.88;;;6.22;;
17382;SDS011;8809;51.892;8.384;2023-08-30T06:18:52;7.28;;;6.57;;
17382;SDS011;8809;51.892;8.384;2023-08-30T06:21:19;7.00;;;6.30;;
17382;SDS011;8809;51.892;8.384;2023-08-30T06:23:46;7.15;;;6.45;;
17382;SDS011;8809;51.892;8.384;2023-08-30T06:26:13;7.63;;;6.60;;
17382;SDS011;8809;51.892;8.384;2023-08-30T06:28:42;6.45;;;5.72;;
17382;SDS011;8809;51.892;8.384;2023-08-30T06:31:11;6.90;;;6.20;;
17382;SDS011;8809;51.892;8.384;2023-08-30T06:33:39;6.28;;;5.57;;
17382;SDS011;8809;51.892;8.384;2023-08-30T06:36:06;6.55;;;5.63;;
17382;SDS011;8809;51.892;8.384;2023-08-30T06:38:33;6.10;;;5.40;;
17382;SDS011;8809;51.892;8.384;2023-08-30T06:41:00;6.72;;;5.90;;
17382;SDS011;8809;51.892;8.384;2023-08-30T06:43:28;6.10;;;5.30;;
17382;SDS011;8809;51.892;8.384;2023-08-30T06:45:58;7.47;;;6.68;;
17382;SDS011;8809;51.892;8.384;2023-08-30T06:48:28;7.70;;;6.75;;
17382;SDS011;8809;51.892;8.384;2023-08-30T06:50:56;9.43;;;7.68;;
17382;SDS011;8809;51.892;8.384;2023-08-30T06:53:24;9.07;;;7.88;;
17382;SDS011;8809;51.892;8.384;2023-08-30T06:55:56;11.68;;;8.30;;
17382;SDS011;8809;51.892;8.384;2023-08-30T06:58:24;10.13;;;8.05;;
17382;SDS011;8809;51.892;8.384;2023-08-30T07:00:51;9.48;;;7.97;;
17382;SDS011;8809;51.892;8.384;2023-08-30T07:03:20;8.30;;;6.85;;
17382;SDS011;8809;51.892;8.384;2023-08-30T07:05:47;9.30;;;8.00;;
17382;SDS011;8809;51.892;8.384;2023-08-30T07:08:14;10.38;;;8.50;;
17382;SDS011;8809;51.892;8.384;2023-08-30T07:10:41;12.50;;;9.90;;
17382;SDS011;8809;51.892;8.384;2023-08-30T07:13:09;9.82;;;8.50;;
17382;SDS011;8809;51.892;8.384;2023-08-30T07:15:38;11.85;;;9.23;;
17382;SDS011;8809;51.892;8.384;2023-08-30T07:18:06;12.10;;;9.90;;
17382;SDS011;8809;51.892;8.384;2023-08-30T07:20:35;11.70;;;9.57;;
17382;SDS011;8809;51.892;8.384;2023-08-30T07:23:03;13.82;;;10.45;;
17382;SDS011;8809;51.892;8.384;2023-08-30T07:25:30;12.95;;;9.75;;
17382;SDS011;8809;51.892;8.384;2023-08-30T07:27:58;11.93;;;10.05;;
17382;SDS011;8809;51.892;8.384;2023-08-30T07:30:26;12.07;;;9.98;;
17382;SDS011;8809;51.892;8.384;2023-08-30T07:32:53;10.73;;;9.20;;
17382;SDS011;8809;51.892;8.384;2023-08-30T07:35:20;10.50;;;8.35;;
17382;SDS011;8809;51.892;8.384;2023-08-30T07:37:49;11.73;;;8.95;;
17382;SDS011;8809;51.892;8.384;2023-08-30T07:40:16;10.02;;;8.45;;
17382;SDS011;8809;51.892;8.384;2023-08-30T07:42:43;10.75;;;8.73;;
17382;SDS011;8809;51.892;8.384;2023-08-30T07:45:11;9.95;;;8.35;;
17382;SDS011;8809;51.892;8.384;2023-08-30T07:47:38;11.82;;;8.95;;
17382;SDS011;8809;51.892;8.384;2023-08-30T07:50:06;10.27;;;8.48;;
17382;SDS011;8809;51.892;8.384;2023-08-30T07:52:34;11.68;;;9.77;;
17382;SDS011;8809;51.892;8.384;2023-08-30T07:55:03;13.02;;;10.23;;
17382;SDS011;8809;51.892;8.384;2023-08-30T07:57:30;15.82;;;13.13;;
17382;SDS011;8809;51.892;8.384;2023-08-30T07:59:57;24.15;;;17.58;;
17382;SDS011;8809;51.892;8.384;2023-08-30T08:02:25;24.77;;;18.50;;
17382;SDS011;8809;51.892;8.384;2023-08-30T08:04:53;22.58;;;17.23;;
17382;SDS011;8809;51.892;8.384;2023-08-30T08:07:20;22.25;;;16.92;;
17382;SDS011;8809;51.892;8.384;2023-08-30T08:09:47;20.70;;;16.15;;
17382;SDS011;8809;51.892;8.384;2023-08-30T08:12:16;20.63;;;15.68;;
17382;SDS011;8809;51.892;8.384;2023-08-30T08:14:43;18.42;;;13.77;;
17382;SDS011;8809;51.892;8.384;2023-08-30T08:17:10;21.25;;;15.98;;
17382;SDS011;8809;51.892;8.384;2023-08-30T08:19:38;21.67;;;16.70;;
17382;SDS011;8809;51.892;8.384;2023-08-30T08:22:05;25.10;;;17.85;;
17382;SDS011;8809;51.892;8.384;2023-08-30T08:24:32;20.95;;;15.70;;
17382;SDS011;8809;51.892;8.384;2023-08-30T08:27:00;19.25;;;14.48;;
17382;SDS011;8809;51.892;8.384;2023-08-30T08:29:29;21.85;;;16.35;;
17382;SDS011;8809;51.892;8.384;2023-08-30T08:31:56;23.95;;;17.33;;
17382;SDS011;8809;51.892;8.384;2023-08-30T08:34:23;23.38;;;17.65;;
17382;SDS011;8809;51.892;8.384;2023-08-30T08:36:50;22.92;;;17.52;;
17382;SDS011;8809;51.892;8.384;2023-08-30T08:39:17;23.08;;;16.48;;
17382;SDS011;8809;51.892;8.384;2023-08-30T08:41:47;21.38;;;17.35;;
17382;SDS011;8809;51.892;8.384;2023-08-30T08:44:17;24.80;;;19.20;;
17382;SDS011;8809;51.892;8.384;2023-08-30T08:46:48;23.45;;;18.00;;
17382;SDS011;8809;51.892;8.384;2023-08-30T08:49:18;22.17;;;16.88;;
17382;SDS011;8809;51.892;8.384;2023-08-30T08:51:45;22.88;;;17.48;;
17382;SDS011;8809;51.892;8.384;2023-08-30T08:54:13;20.08;;;15.45;;
17382;SDS011;8809;51.892;8.384;2023-08-30T08:56:40;19.95;;;15.80;;
17382;SDS011;8809;51.892;8.384;2023-08-30T08:59:09;23.48;;;18.27;;
17382;SDS011;8809;51.892;8.384;2023-08-30T09:01:39;24.38;;;18.63;;
17382;SDS011;8809;51.892;8.384;2023-08-30T09:04:09;21.42;;;16.73;;
17382;SDS011;8809;51.892;8.384;2023-08-30T09:06:37;24.67;;;18.17;;
17382;SDS011;8809;51.892;8.384;2023-08-30T09:09:07;21.17;;;17.30;;
17382;SDS011;8809;51.892;8.384;2023-08-30T09:11:36;21.27;;;17.10;;
17382;SDS011;8809;51.892;8.384;2023-08-30T09:14:03;19.67;;;15.60;;
17382;SDS011;8809;51.892;8.384;2023-08-30T09:16:30;21.00;;;16.15;;
17382;SDS011;8809;51.892;8.384;2023-08-30T09:18:58;20.35;;;15.20;;
17382;SDS011;8809;51.892;8.384;2023-08-30T09:21:27;20.65;;;16.30;;
17382;SDS011;8809;51.892;8.384;2023-08-30T09:23:58;19.90;;;16.23;;
17382;SDS011;8809;51.892;8.384;2023-08-30T09:26:26;23.35;;;17.35;;
17382;SDS011;8809;51.892;8.384;2023-08-30T09:29:00;17.58;;;14.98;;
17382;SDS011;8809;51.892;8.384;2023-08-30T09:31:32;16.85;;;13.93;;
17382;SDS011;8809;51.892;8.384;2023-08-30T09:34:02;19.10;;;15.77;;
17382;SDS011;8809;51.892;8.384;2023-08-30T09:36:35;16.92;;;14.70;;
17382;SDS011;8809;51.892;8.384;2023-08-30T09:39:03;16.55;;;14.02;;
17382;SDS011;8809;51.892;8.384;2023-08-30T09:41:31;14.45;;;12.48;;
17382;SDS011;8809;51.892;8.384;2023-08-30T09:43:59;13.00;;;11.15;;
17382;SDS011;8809;51.892;8.384;2023-08-30T09:46:26;13.43;;;11.30;;
17382;SDS011;8809;51.892;8.384;2023-08-30T09:48:55;13.35;;;11.48;;
17382;SDS011;8809;51.892;8.384;2023-08-30T09:51:30;12.40;;;10.38;;
17382;SDS011;8809;51.892;8.384;2023-08-30T09:54:03;14.35;;;10.30;;
17382;SDS011;8809;51.892;8.384;2023-08-30T10:03:24;9.77;;;8.45;;
17382;SDS011;8809;51.892;8.384;2023-08-30T10:05:52;10.93;;;8.45;;
17382;SDS011;8809;51.892;8.384;2023-08-30T10:08:21;8.73;;;6.88;;
17382;SDS011;8809;51.892;8.384;2023-08-30T10:10:58;8.75;;;7.00;;
17382;SDS011;8809;51.892;8.384;2023-08-30T10:13:27;8.60;;;6.25;;
17382;SDS011;8809;51.892;8.384;2023-08-30T10:15:58;7.30;;;6.50;;
17382;SDS011;8809;51.892;8.384;2023-08-30T10:18:31;6.93;;;5.40;;
17382;SDS011;8809;51.892;8.384;2023-08-30T10:21:02;6.55;;;5.93;;
17382;SDS011;8809;51.892;8.384;2023-08-30T10:23:39;7.68;;;6.32;;
17382;SDS011;8809;51.892;8.384;2023-08-30T10:26:11;6.60;;;5.82;;
17382;SDS011;8809;51.892;8.384;2023-08-30T10:28:39;6.53;;;5.20;;
17382;SDS011;8809;51.892;8.384;2023-08-30T10:31:08;6.32;;;5.57;;
17382;SDS011;8809;51.892;8.384;2023-08-30T10:33:44;7.38;;;4.82;;
17382;SDS011;8809;51.892;8.384;2023-08-30T10:36:19;6.90;;;5.18;;
17382;SDS011;8809;51.892;8.384;2023-08-30T10:38:48;5.97;;;4.80;;
17382;SDS011;8809;51.892;8.384;2023-08-30T10:41:24;4.85;;;4.32;;
17382;SDS011;8809;51.892;8.384;2023-08-30T10:43:55;5.25;;;4.50;;
17382;SDS011;8809;51.892;8.384;2023-08-30T10:46:29;6.05;;;4.60;;
17382;SDS011;8809;51.892;8.384;2023-08-30T10:49:07;6.68;;;5.03;;
17382;SDS011;8809;51.892;8.384;2023-08-30T10:51:40;7.20;;;4.80;;
17382;SDS011;8809;51.892;8.384;2023-08-30T10:54:10;5.60;;;4.80;;
17382;SDS011;8809;51.892;8.384;2023-08-30T10:56:54;5.38;;;4.00;;
17382;SDS011;8809;51.892;8.384;2023-08-30T10:59:25;5.65;;;4.22;;
17382;SDS011;8809;51.892;8.384;2023-08-30T11:01:53;5.00;;;4.15;;
17382;SDS011;8809;51.892;8.384;2023-08-30T11:04:21;6.55;;;3.97;;
17382;SDS011;8809;51.892;8.384;2023-08-30T11:06:51;5.50;;;4.63;;
17382;SDS011;8809;51.892;8.384;2023-08-30T11:09:19;5.78;;;4.22;;
17382;SDS011;8809;51.892;8.384;2023-08-30T11:11:49;5.35;;;3.92;;
17382;SDS011;8809;51.892;8.384;2023-08-30T11:14:18;6.00;;;4.50;;
17382;SDS011;8809;51.892;8.384;2023-08-30T11:16:48;5.28;;;4.18;;
17382;SDS011;8809;51.892;8.384;2023-08-30T11:19:15;4.47;;;3.83;;
17382;SDS011;8809;51.892;8.384;2023-08-30T11:21:43;6.15;;;4.40;;
17382;SDS011;8809;51.892;8.384;2023-08-30T11:24:12;5.82;;;4.70;;
17382;SDS011;8809;51.892;8.384;2023-08-30T11:26:42;7.38;;;4.53;;
17382;SDS011;8809;51.892;8.384;2023-08-30T11:29:11;5.53;;;4.43;;
17382;SDS011;8809;51.892;8.384;2023-08-30T11:31:39;5.75;;;4.85;;
17382;SDS011;8809;51.892;8.384;2023-08-30T11:34:09;6.75;;;4.25;;
17382;SDS011;8809;51.892;8.384;2023-08-30T11:36:42;6.75;;;4.25;;
17382;SDS011;8809;51.892;8.384;2023-08-30T11:39:09;4.85;;;4.18;;
17382;SDS011;8809;51.892;8.384;2023-08-30T11:41:46;5.18;;;4.15;;
17382;SDS011;8809;51.892;8.384;2023-08-30T11:44:15;4.60;;;3.75;;
17382;SDS011;8809;51.892;8.384;2023-08-30T11:46:43;4.85;;;4.22;;
17382;SDS011;8809;51.892;8.384;2023-08-30T11:49:13;6.25;;;4.50;;
17382;SDS011;8809;51.892;8.384;2023-08-30T11:51:41;5.72;;;4.22;;
17382;SDS011;8809;51.892;8.384;2023-08-30T11:54:09;4.03;;;3.55;;
17382;SDS011;8809;51.892;8.384;2023-08-30T11:56:37;4.57;;;3.30;;
17382;SDS011;8809;51.892;8.384;2023-08-30T11:59:04;4.53;;;3.28;;
17382;SDS011;8809;51.892;8.384;2023-08-30T12:01:33;6.32;;;4.22;;
17382;SDS011;8809;51.892;8.384;2023-08-30T12:04:08;5.88;;;4.50;;
17382;SDS011;8809;51.892;8.384;2023-08-30T12:06:38;5.03;;;4.03;;
17382;SDS011;8809;51.892;8.384;2023-08-30T12:09:05;6.05;;;4.40;;
17382;SDS011;8809;51.892;8.384;2023-08-30T12:11:40;5.68;;;4.72;;
17382;SDS011;8809;51.892;8.384;2023-08-30T12:14:08;5.55;;;4.55;;
17382;SDS011;8809;51.892;8.384;2023-08-30T12:16:36;5.20;;;4.32;;
17382;SDS011;8809;51.892;8.384;2023-08-30T12:19:07;5.43;;;4.13;;
17382;SDS011;8809;51.892;8.384;2023-08-30T12:21:40;7.57;;;5.40;;
17382;SDS011;8809;51.892;8.384;2023-08-30T12:24:10;6.28;;;4.78;;
17382;SDS011;8809;51.892;8.384;2023-08-30T12:26:38;9.52;;;6.38;;
17382;SDS011;8809;51.892;8.384;2023-08-30T12:29:05;7.13;;;5.60;;
17382;SDS011;8809;51.892;8.384;2023-08-30T12:31:32;8.18;;;5.90;;
17382;SDS011;8809;51.892;8.384;2023-08-30T12:34:01;8.15;;;6.32;;
17382;SDS011;8809;51.892;8.384;2023-08-30T12:36:29;7.93;;;6.10;;
17382;SDS011;8809;51.892;8.384;2023-08-30T12:38:58;6.63;;;5.93;;
17382;SDS011;8809;51.892;8.384;2023-08-30T12:41:26;8.13;;;6.07;;
17382;SDS011;8809;51.892;8.384;2023-08-30T12:43:53;6.97;;;5.13;;
17382;SDS011;8809;51.892;8.384;2023-08-30T12:46:21;7.05;;;5.25;;
17382;SDS011;8809;51.892;8.384;2023-08-30T12:48:51;8.25;;;5.30;;
17382;SDS011;8809;51.892;8.384;2023-08-30T12:51:20;8.30;;;6.07;;
17382;SDS011;8809;51.892;8.384;2023-08-30T12:53:47;6.78;;;5.60;;
17382;SDS011;8809;51.892;8.384;2023-08-30T12:56:20;6.65;;;5.25;;
17382;SDS011;8809;51.892;8.384;2023-08-30T12:58:48;9.30;;;5.65;;
17382;SDS011;8809;51.892;8.384;2023-08-30T13:01:16;8.82;;;6.03;;
17382;SDS011;8809;51.892;8.384;2023-08-30T13:03:44;9.10;;;5.85;;
17382;SDS011;8809;51.892;8.384;2023-08-30T13:06:12;9.57;;;7.32;;
17382;SDS011;8809;51.892;8.384;2023-08-30T13:08:43;10.50;;;7.88;;
17382;SDS011;8809;51.892;8.384;2023-08-30T13:11:11;10.77;;;7.90;;
17382;SDS011;8809;51.892;8.384;2023-08-30T13:13:38;8.35;;;7.32;;
17382;SDS011;8809;51.892;8.384;2023-08-30T13:16:05;8.65;;;7.30;;
17382;SDS011;8809;51.892;8.384;2023-08-30T13:18:33;8.82;;;7.63;;
17382;SDS011;8809;51.892;8.384;2023-08-30T13:21:03;11.27;;;8.18;;
17382;SDS011;8809;51.892;8.384;2023-08-30T13:23:33;9.57;;;8.63;;
17382;SDS011;8809;51.892;8.384;2023-08-30T13:26:02;10.13;;;9.10;;
17382;SDS011;8809;51.892;8.384;2023-08-30T13:28:29;9.65;;;8.65;;
17382;SDS011;8809;51.892;8.384;2023-08-30T13:30:57;11.20;;;8.70;;
17382;SDS011;8809;51.892;8.384;2023-08-30T13:33:24;10.38;;;8.65;;
17382;SDS011;8809;51.892;8.384;2023-08-30T13:35:52;11.25;;;10.10;;
17382;SDS011;8809;51.892;8.384;2023-08-30T13:38:21;9.57;;;8.60;;
17382;SDS011;8809;51.892;8.384;2023-08-30T13:40:50;11.10;;;8.80;;
17382;SDS011;8809;51.892;8.384;2023-08-30T13:43:25;10.35;;;9.20;;
17382;SDS011;8809;51.892;8.384;2023-08-30T13:45:56;11.77;;;10.57;;
17382;SDS011;8809;51.892;8.384;2023-08-30T13:48:24;11.75;;;10.55;;
17382;SDS011;8809;51.892;8.384;2023-08-30T13:50:51;11.15;;;10.05;;
17382;SDS011;8809;51.892;8.384;2023-08-30T13:53:19;10.70;;;9.60;;
17382;SDS011;8809;51.892;8.384;2023-08-30T13:55:46;10.32;;;9.32;;
17382;SDS011;8809;51.892;8.384;2023-08-30T13:58:15;9.98;;;8.98;;
17382;SDS011;8809;51.892;8.384;2023-08-30T14:00:43;11.23;;;10.13;;
17382;SDS011;8809;51.892;8.384;2023-08-30T14:03:11;9.18;;;8.27;;
17382;SDS011;8809;51.892;8.384;2023-08-30T14:05:38;10.23;;;9.23;;
17382;SDS011;8809;51.892;8.384;2023-08-30T14:08:06;10.25;;;8.55;;
17382;SDS011;8809;51.892;8.384;2023-08-30T14:10:33;10.07;;;9.02;;
17382;SDS011;8809;51.892;8.384;2023-08-30T14:13:01;9.95;;;8.95;;
17382;SDS011;8809;51.892;8.384;2023-08-30T14:15:28;9.60;;;8.60;;
17382;SDS011;8809;51.892;8.384;2023-08-30T14:17:59;11.00;;;7.93;;
17382;SDS011;8809;51.892;8.384;2023-08-30T14:20:27;8.82;;;7.93;;
17382;SDS011;8809;51.892;8.384;2023-08-30T14:22:55;9.23;;;8.15;;
17382;SDS011;8809;51.892;8.384;2023-08-30T14:25:22;10.75;;;7.50;;
17382;SDS011;8809;51.892;8.384;2023-08-30T14:27:52;8.20;;;7.40;;
17382;SDS011;8809;51.892;8.384;2023-08-30T14:30:20;10.32;;;7.55;;
17382;SDS011;8809;51.892;8.384;2023-08-30T14:32:48;7.75;;;6.95;;
17382;SDS011;8809;51.892;8.384;2023-08-30T14:35:17;7.85;;;7.07;;
17382;SDS011;8809;51.892;8.384;2023-08-30T14:37:46;7.72;;;7.00;;
17382;SDS011;8809;51.892;8.384;2023-08-30T14:40:13;7.97;;;6.85;;
17382;SDS011;8809;51.892;8.384;2023-08-30T14:42:41;9.43;;;7.90;;
17382;SDS011;8809;51.892;8.384;2023-08-30T14:45:08;9.40;;;8.13;;
17382;SDS011;8809;51.892;8.384;2023-08-30T14:47:36;8.80;;;8.00;;
17382;SDS011;8809;51.892;8.384;2023-08-30T14:50:06;8.90;;;7.78;;
17382;SDS011;8809;51.892;8.384;2023-08-30T14:52:36;10.75;;;8.50;;
17382;SDS011;8809;51.892;8.384;2023-08-30T14:55:03;8.98;;;8.07;;
17382;SDS011;8809;51.892;8.384;2023-08-30T14:57:31;9.50;;;8.40;;
17382;SDS011;8809;51.892;8.384;2023-08-30T14:59:58;9.48;;;8.52;;
17382;SDS011;8809;51.892;8.384;2023-08-30T15:02:45;9.70;;;8.70;;
17382;SDS011;8809;51.892;8.384;2023-08-30T15:05:13;9.07;;;8.15;;
17382;SDS011;8809;51.892;8.384;2023-08-30T15:07:47;9.65;;;8.65;;
17382;SDS011;8809;51.892;8.384;2023-08-30T15:10:15;9.85;;;8.85;;
17382;SDS011;8809;51.892;8.384;2023-08-30T15:12:42;9.55;;;8.52;;